sensor_id;sensor_type;location;lat;lon;timestamp;pressure;altitude;pressure_sealevel;temperature;humidity
64544;BME280;50936;51.660;5.616;2023-02-07T00:01:27;103607.22;;;0.30;100.00
64544;BME280;50936;51.660;5.616;2023-02-07T00:03:56;103598.25;;;0.25;100.00
64544;BME280;50936;51.660;5.616;2023-02-07T00:06:29;103589.34;;;0.22;100.00
64544;BME280;50936;51.660;5.616;2023-02-07T00:08:59;103591.97;;;0.18;100.00
64544;BME280;50936;51.660;5.616;2023-02-07T00:11:28;103596.34;;;0.18;100.00
64544;BME280;50936;51.660;5.616;2023-02-07T00:13:56;103602.56;;;0.17;100.00
64544;BME280;50936;51.660;5.616;2023-02-07T00:16:25;103599.78;;;0.11;100.00
64544;BME280;50936;51.660;5.616;2023-02-07T00:18:53;103601.47;;;0.06;100.00
64544;BME280;50936;51.660;5.616;2023-02-07T00:21:22;103601.41;;;0.03;100.00
64544;BME280;50936;51.660;5.616;2023-02-07T00:23:51;103603.16;;;0.01;100.00
64544;BME280;50936;51.660;5.616;2023-02-07T00:26:21;103612.84;;;-0.02;100.00
64544;BME280;50936;51.660;5.616;2023-02-07T00:28:51;103612.81;;;-0.03;100.00
64544;BME280;50936;51.660;5.616;2023-02-07T00:31:23;103603.00;;;-0.06;100.00
64544;BME280;50936;51.660;5.616;2023-02-07T00:33:55;103596.78;;;-0.08;100.00
64544;BME280;50936;51.660;5.616;2023-02-07T00:36:25;103599.44;;;-0.08;100.00
64544;BME280;50936;51.660;5.616;2023-02-07T00:38:56;103610.03;;;-0.11;100.00
64544;BME280;50936;51.660;5.616;2023-02-07T00:41:28;103599.25;;;-0.17;100.00
64544;BME280;50936;51.660;5.616;2023-02-07T00:43:56;103595.63;;;-0.21;100.00
64544;BME280;50936;51.660;5.616;2023-02-07T00:46:23;103592.00;;;-0.27;100.00
64544;BME280;50936;51.660;5.616;2023-02-07T00:48:52;103583.94;;;-0.30;100.00
64544;BME280;50936;51.660;5.616;2023-02-07T00:51:19;103584.81;;;-0.31;100.00
64544;BME280;50936;51.660;5.616;2023-02-07T00:53:47;103583.94;;;-0.30;100.00
64544;BME280;50936;51.660;5.616;2023-02-07T00:56:14;103594.53;;;-0.32;100.00
64544;BME280;50936;51.660;5.616;2023-02-07T00:58:41;103589.19;;;-0.33;100.00
64544;BME280;50936;51.660;5.616;2023-02-07T01:01:08;103597.16;;;-0.33;100.00
64544;BME280;50936;51.660;5.616;2023-02-07T01:03:35;103600.75;;;-0.31;100.00
64544;BME280;50936;51.660;5.616;2023-02-07T01:06:02;103598.13;;;-0.30;100.00
64544;BME280;50936;51.660;5.616;2023-02-07T01:08:30;103600.88;;;-0.25;100.00
64544;BME280;50936;51.660;5.616;2023-02-07T01:11:01;103599.22;;;-0.20;100.00
64544;BME280;50936;51.660;5.616;2023-02-07T01:13:30;103589.50;;;-0.18;100.00
64544;BME280;50936;51.660;5.616;2023-02-07T01:15:57;103592.16;;;-0.18;100.00
64544;BME280;50936;51.660;5.616;2023-02-07T01:18:27;103601.06;;;-0.16;100.00
64544;BME280;50936;51.660;5.616;2023-02-07T01:20:53;103606.41;;;-0.13;100.00
64544;BME280;50936;51.660;5.616;2023-02-07T01:23:20;103603.00;;;-0.07;100.00
64544;BME280;50936;51.660;5.616;2023-02-07T01:25:47;103597.69;;;-0.06;100.00
64544;BME280;50936;51.660;5.616;2023-02-07T01:28:14;103595.97;;;-0.05;100.00
64544;BME280;50936;51.660;5.616;2023-02-07T01:30:43;103604.75;;;-0.08;100.00
64544;BME280;50936;51.660;5.616;2023-02-07T01:33:10;103604.72;;;-0.11;100.00
64544;BME280;50936;51.660;5.616;2023-02-07T01:35:37;103601.97;;;-0.14;100.00
64544;BME280;50936;51.660;5.616;2023-02-07T01:38:05;103593.94;;;-0.17;100.00
64544;BME280;50936;51.660;5.616;2023-02-07T01:40:36;103588.59;;;-0.20;100.00
64544;BME280;50936;51.660;5.616;2023-02-07T01:43:05;103604.47;;;-0.23;100.00
64544;BME280;50936;51.660;5.616;2023-02-07T01:45:38;103603.56;;;-0.24;100.00
64544;BME280;50936;51.660;5.616;2023-02-07T01:48:11;103602.63;;;-0.27;100.00
64544;BME280;50936;51.660;5.616;2023-02-07T01:50:42;103600.81;;;-0.28;100.00
64544;BME280;50936;51.660;5.616;2023-02-07T01:53:15;103607.84;;;-0.30;100.00
64544;BME280;50936;51.660;5.616;2023-02-07T01:55:45;103598.09;;;-0.33;100.00
64544;BME280;50936;51.660;5.616;2023-02-07T01:58:16;103591.81;;;-0.36;100.00
64544;BME280;50936;51.660;5.616;2023-02-07T02:00:43;103588.19;;;-0.39;100.00
64544;BME280;50936;51.660;5.616;2023-02-07T02:03:12;103589.94;;;-0.41;100.00
64544;BME280;50936;51.660;5.616;2023-02-07T02:05:40;103587.28;;;-0.42;100.00
64544;BME280;50936;51.660;5.616;2023-02-07T02:08:08;103584.59;;;-0.44;100.00
64544;BME280;50936;51.660;5.616;2023-02-07T02:22:27;103603.56;;;-0.66;100.00
64544;BME280;50936;51.660;5.616;2023-02-07T02:40:36;103612.03;;;-0.83;100.00
64544;BME280;50936;51.660;5.616;2023-02-07T02:46:22;103613.78;;;-0.85;100.00
64544;BME280;50936;51.660;5.616;2023-02-07T02:48:57;103601.38;;;-0.86;100.00
64544;BME280;50936;51.660;5.616;2023-02-07T02:51:30;103598.66;;;-0.89;100.00
64544;BME280;50936;51.660;5.616;2023-02-07T02:53:59;103600.47;;;-0.88;100.00
64544;BME280;50936;51.660;5.616;2023-02-07T03:05:29;103603.75;;;-0.98;100.00
64544;BME280;50936;51.660;5.616;2023-02-07T03:08:40;103599.28;;;-0.99;100.00
64544;BME280;50936;51.660;5.616;2023-02-07T03:11:15;103593.06;;;-1.01;100.00
64544;BME280;50936;51.660;5.616;2023-02-07T03:14:06;103596.59;;;-1.02;100.00
64544;BME280;50936;51.660;5.616;2023-02-07T03:17:10;103594.78;;;-1.03;100.00
64544;BME280;50936;51.660;5.616;2023-02-07T03:22:24;103605.31;;;-1.08;100.00
64544;BME280;50936;51.660;5.616;2023-02-07T03:24:56;103612.34;;;-1.10;100.00
64544;BME280;50936;51.660;5.616;2023-02-07T03:27:29;103605.19;;;-1.12;100.00
64544;BME280;50936;51.660;5.616;2023-02-07T03:30:01;103604.31;;;-1.13;100.00
64544;BME280;50936;51.660;5.616;2023-02-07T03:32:36;103596.31;;;-1.14;100.00
64544;BME280;50936;51.660;5.616;2023-02-07T03:35:26;103596.31;;;-1.14;100.00
64544;BME280;50936;51.660;5.616;2023-02-07T03:38:00;103600.63;;;-1.18;100.00
64544;BME280;50936;51.660;5.616;2023-02-07T03:40:32;103595.28;;;-1.20;100.00
64544;BME280;50936;51.660;5.616;2023-02-07T03:43:10;103598.81;;;-1.21;100.00
64544;BME280;50936;51.660;5.616;2023-02-07T03:45:46;103599.63;;;-1.23;100.00
64544;BME280;50936;51.660;5.616;2023-02-07T03:48:13;103601.38;;;-1.24;100.00
64544;BME280;50936;51.660;5.616;2023-02-07T03:50:40;103592.56;;;-1.24;100.00
64544;BME280;50936;51.660;5.616;2023-02-07T03:53:07;103594.28;;;-1.25;100.00
64544;BME280;50936;51.660;5.616;2023-02-07T03:55:34;103592.41;;;-1.29;100.00
64544;BME280;50936;51.660;5.616;2023-02-07T03:58:01;103592.38;;;-1.30;100.00
64544;BME280;50936;51.660;5.616;2023-02-07T04:00:29;103587.03;;;-1.33;100.00
64544;BME280;50936;51.660;5.616;2023-02-07T04:02:56;103585.13;;;-1.38;100.00
64544;BME280;50936;51.660;5.616;2023-02-07T04:05:23;103582.47;;;-1.39;100.00
64544;BME280;50936;51.660;5.616;2023-02-07T04:07:49;103585.97;;;-1.40;100.00
64544;BME280;50936;51.660;5.616;2023-02-07T04:10:17;103587.78;;;-1.38;100.00
64544;BME280;50936;51.660;5.616;2023-02-07T04:12:44;103588.72;;;-1.37;100.00
64544;BME280;50936;51.660;5.616;2023-02-07T04:15:11;103587.78;;;-1.38;100.00
64544;BME280;50936;51.660;5.616;2023-02-07T04:17:38;103579.88;;;-1.36;100.00
64544;BME280;50936;51.660;5.616;2023-02-07T04:20:06;103581.63;;;-1.37;100.00
64544;BME280;50936;51.660;5.616;2023-02-07T04:22:34;103589.63;;;-1.35;100.00
64544;BME280;50936;51.660;5.616;2023-02-07T04:25:01;103588.75;;;-1.34;100.00
64544;BME280;50936;51.660;5.616;2023-02-07T04:27:27;103583.44;;;-1.36;100.00
64544;BME280;50936;51.660;5.616;2023-02-07T04:29:54;103576.38;;;-1.35;100.00
64544;BME280;50936;51.660;5.616;2023-02-07T04:32:21;103573.66;;;-1.38;100.00
64544;BME280;50936;51.660;5.616;2023-02-07T04:34:48;103577.19;;;-1.39;100.00
64544;BME280;50936;51.660;5.616;2023-02-07T04:37:15;103579.78;;;-1.41;100.00
64544;BME280;50936;51.660;5.616;2023-02-07T04:39:42;103584.16;;;-1.41;100.00
64544;BME280;50936;51.660;5.616;2023-02-07T04:42:09;103571.88;;;-1.39;100.00
64544;BME280;50936;51.660;5.616;2023-02-07T04:44:36;103569.22;;;-1.39;100.00
64544;BME280;50936;51.660;5.616;2023-02-07T04:47:02;103577.97;;;-1.42;100.00
64544;BME280;50936;51.660;5.616;2023-02-07T04:49:30;103568.22;;;-1.44;100.00
64544;BME280;50936;51.660;5.616;2023-02-07T04:51:59;103559.38;;;-1.43;100.00
64544;BME280;50936;51.660;5.616;2023-02-07T04:54:26;103545.19;;;-1.45;100.00
64544;BME280;50936;51.660;5.616;2023-02-07T04:56:53;103555.78;;;-1.45;100.00
64544;BME280;50936;51.660;5.616;2023-02-07T04:59:20;103557.50;;;-1.47;100.00
64544;BME280;50936;51.660;5.616;2023-02-07T05:01:47;103559.31;;;-1.46;100.00
64544;BME280;50936;51.660;5.616;2023-02-07T05:04:14;103556.59;;;-1.49;100.00
64544;BME280;50936;51.660;5.616;2023-02-07T05:06:41;103553.00;;;-1.51;100.00
64544;BME280;50936;51.660;5.616;2023-02-07T05:09:08;103561.81;;;-1.52;100.00
64544;BME280;50936;51.660;5.616;2023-02-07T05:11:35;103560.97;;;-1.51;100.00
64544;BME280;50936;51.660;5.616;2023-02-07T05:14:02;103559.25;;;-1.49;100.00
64544;BME280;50936;51.660;5.616;2023-02-07T05:16:29;103568.03;;;-1.50;100.00
64544;BME280;50936;51.660;5.616;2023-02-07T05:18:56;103567.16;;;-1.51;100.00
64544;BME280;50936;51.660;5.616;2023-02-07T05:21:23;103573.34;;;-1.50;100.00
64544;BME280;50936;51.660;5.616;2023-02-07T05:23:49;103583.94;;;-1.50;100.00
64544;BME280;50936;51.660;5.616;2023-02-07T05:26:16;103580.53;;;-1.46;100.00
64544;BME280;50936;51.660;5.616;2023-02-07T05:28:43;103580.44;;;-1.49;100.00
64544;BME280;50936;51.660;5.616;2023-02-07T05:31:10;103587.38;;;-1.55;100.00
64544;BME280;50936;51.660;5.616;2023-02-07T05:33:37;103583.72;;;-1.60;100.00
64544;BME280;50936;51.660;5.616;2023-02-07T05:36:05;103581.84;;;-1.64;100.00
64544;BME280;50936;51.660;5.616;2023-02-07T05:38:32;103581.72;;;-1.70;100.00
64544;BME280;50936;51.660;5.616;2023-02-07T05:40:59;103586.91;;;-1.73;100.00
64544;BME280;50936;51.660;5.616;2023-02-07T05:43:26;103584.22;;;-1.75;100.00
64544;BME280;50936;51.660;5.616;2023-02-07T05:45:53;103592.06;;;-1.79;100.00
64544;BME280;50936;51.660;5.616;2023-02-07T05:48:20;103599.00;;;-1.84;100.00
64544;BME280;50936;51.660;5.616;2023-02-07T05:50:47;103595.31;;;-1.89;100.00
64544;BME280;50936;51.660;5.616;2023-02-07T05:53:13;103591.75;;;-1.91;100.00
64544;BME280;50936;51.660;5.616;2023-02-07T05:55:40;103602.25;;;-1.95;100.00
64544;BME280;50936;51.660;5.616;2023-02-07T05:58:07;103595.19;;;-1.96;100.00
64544;BME280;50936;51.660;5.616;2023-02-07T06:00:34;103598.56;;;-2.00;100.00
64544;BME280;50936;51.660;5.616;2023-02-07T06:03:02;103602.91;;;-2.03;100.00
64544;BME280;50936;51.660;5.616;2023-02-07T06:05:29;103603.72;;;-2.06;100.00
64544;BME280;50936;51.660;5.616;2023-02-07T06:07:57;103600.13;;;-2.08;100.00
64544;BME280;50936;51.660;5.616;2023-02-07T06:10:24;103603.56;;;-2.12;100.00
64544;BME280;50936;51.660;5.616;2023-02-07T06:12:51;103612.34;;;-2.13;100.00
64544;BME280;50936;51.660;5.616;2023-02-07T06:15:18;103612.28;;;-2.16;100.00
64544;BME280;50936;51.660;5.616;2023-02-07T06:17:46;103606.06;;;-2.17;100.00
64544;BME280;50936;51.660;5.616;2023-02-07T06:20:13;103622.78;;;-2.19;100.00
64544;BME280;50936;51.660;5.616;2023-02-07T06:22:40;103622.78;;;-2.19;100.00
64544;BME280;50936;51.660;5.616;2023-02-07T06:25:07;103627.19;;;-2.20;100.00
64544;BME280;50936;51.660;5.616;2023-02-07T06:27:40;103626.25;;;-2.20;100.00
64544;BME280;50936;51.660;5.616;2023-02-07T06:30:09;103624.50;;;-2.21;100.00
64544;BME280;50936;51.660;5.616;2023-02-07T06:32:37;103635.06;;;-2.21;100.00
64544;BME280;50936;51.660;5.616;2023-02-07T06:35:05;103633.28;;;-2.22;100.00
64544;BME280;50936;51.660;5.616;2023-02-07T06:37:35;103629.69;;;-2.24;100.00
64544;BME280;50936;51.660;5.616;2023-02-07T06:40:02;103631.31;;;-2.29;100.00
64544;BME280;50936;51.660;5.616;2023-02-07T06:42:30;103635.53;;;-2.36;100.00
64544;BME280;50936;51.660;5.616;2023-02-07T06:44:57;103634.34;;;-2.46;100.00
64544;BME280;50936;51.660;5.616;2023-02-07T06:47:24;103632.38;;;-2.53;100.00
64544;BME280;50936;51.660;5.616;2023-02-07T06:49:51;103639.31;;;-2.58;100.00
64544;BME280;50936;51.660;5.616;2023-02-07T06:52:18;103637.41;;;-2.62;100.00
64544;BME280;50936;51.660;5.616;2023-02-07T06:54:45;103646.00;;;-2.69;100.00
64544;BME280;50936;51.660;5.616;2023-02-07T06:57:12;103645.00;;;-2.73;100.00
64544;BME280;50936;51.660;5.616;2023-02-07T06:59:39;103635.19;;;-2.77;100.00
64544;BME280;50936;51.660;5.616;2023-02-07T07:02:06;103634.13;;;-2.82;100.00
64544;BME280;50936;51.660;5.616;2023-02-07T07:04:32;103634.91;;;-2.86;100.00
64544;BME280;50936;51.660;5.616;2023-02-07T07:06:59;103643.66;;;-2.89;100.00
64544;BME280;50936;51.660;5.616;2023-02-07T07:09:27;103643.50;;;-2.94;100.00
64544;BME280;50936;51.660;5.616;2023-02-07T07:11:54;103658.41;;;-2.96;100.00
64544;BME280;50936;51.660;5.616;2023-02-07T07:14:21;103659.31;;;-2.95;100.00
64544;BME280;50936;51.660;5.616;2023-02-07T07:16:48;103662.81;;;-2.96;100.00
64544;BME280;50936;51.660;5.616;2023-02-07T07:19:15;103661.00;;;-2.97;100.00
64544;BME280;50936;51.660;5.616;2023-02-07T07:21:42;103653.84;;;-3.01;100.00
64544;BME280;50936;51.660;5.616;2023-02-07T07:24:09;103662.66;;;-3.01;100.00
64544;BME280;50936;51.660;5.616;2023-02-07T07:26:36;103672.22;;;-3.04;100.00
64544;BME280;50936;51.660;5.616;2023-02-07T07:29:15;103665.91;;;-3.10;100.00
64544;BME280;50936;51.660;5.616;2023-02-07T07:31:43;103662.28;;;-3.13;100.00
64544;BME280;50936;51.660;5.616;2023-02-07T07:34:11;103671.88;;;-3.15;100.00
64544;BME280;50936;51.660;5.616;2023-02-07T07:36:38;103674.50;;;-3.17;100.00
64544;BME280;50936;51.660;5.616;2023-02-07T07:39:05;103670.88;;;-3.19;100.00
64544;BME280;50936;51.660;5.616;2023-02-07T07:41:33;103674.38;;;-3.20;100.00
64544;BME280;50936;51.660;5.616;2023-02-07T07:44:00;103674.38;;;-3.20;100.00
64544;BME280;50936;51.660;5.616;2023-02-07T07:46:28;103672.59;;;-3.21;100.00
64544;BME280;50936;51.660;5.616;2023-02-07T07:48:55;103682.25;;;-3.21;100.00
64544;BME280;50936;51.660;5.616;2023-02-07T07:51:23;103676.09;;;-3.22;100.00
64544;BME280;50936;51.660;5.616;2023-02-07T07:53:50;103690.13;;;-3.23;100.00
64544;BME280;50936;51.660;5.616;2023-02-07T07:56:17;103694.53;;;-3.23;100.00
64544;BME280;50936;51.660;5.616;2023-02-07T07:58:44;103693.66;;;-3.24;100.00
64544;BME280;50936;51.660;5.616;2023-02-07T08:01:11;103688.34;;;-3.24;100.00
64544;BME280;50936;51.660;5.616;2023-02-07T08:03:38;103693.66;;;-3.24;100.00
64544;BME280;50936;51.660;5.616;2023-02-07T08:06:05;103695.44;;;-3.23;100.00
64544;BME280;50936;51.660;5.616;2023-02-07T08:08:32;103697.25;;;-3.22;100.00
64544;BME280;50936;51.660;5.616;2023-02-07T08:11:01;103704.31;;;-3.21;100.00
64544;BME280;50936;51.660;5.616;2023-02-07T08:13:29;103704.22;;;-3.24;100.00
64544;BME280;50936;51.660;5.616;2023-02-07T08:15:59;103704.25;;;-3.22;100.00
64544;BME280;50936;51.660;5.616;2023-02-07T08:18:27;103702.59;;;-3.20;100.00
64544;BME280;50936;51.660;5.616;2023-02-07T08:20:55;103698.28;;;-3.17;100.00
64544;BME280;50936;51.660;5.616;2023-02-07T08:23:21;103694.78;;;-3.16;100.00
64544;BME280;50936;51.660;5.616;2023-02-07T08:25:48;103691.38;;;-3.13;100.00
64544;BME280;50936;51.660;5.616;2023-02-07T08:28:16;103687.91;;;-3.11;100.00
64544;BME280;50936;51.660;5.616;2023-02-07T08:30:43;103695.16;;;-3.05;100.00
64544;BME280;50936;51.660;5.616;2023-02-07T08:33:13;103689.97;;;-3.02;100.00
64544;BME280;50936;51.660;5.616;2023-02-07T08:35:41;103689.25;;;-2.96;100.00
64544;BME280;50936;51.660;5.616;2023-02-07T08:38:09;103691.16;;;-2.92;100.00
64544;BME280;50936;51.660;5.616;2023-02-07T08:40:36;103694.03;;;-2.84;100.00
64544;BME280;50936;51.660;5.616;2023-02-07T08:43:04;103691.56;;;-2.80;100.00
64544;BME280;50936;51.660;5.616;2023-02-07T08:45:42;103690.03;;;-2.72;100.00
64544;BME280;50936;51.660;5.616;2023-02-07T08:48:14;103692.03;;;-2.64;100.00
64544;BME280;50936;51.660;5.616;2023-02-07T08:50:41;103688.78;;;-2.56;100.00
64544;BME280;50936;51.660;5.616;2023-02-07T08:53:08;103693.44;;;-2.47;100.00
64544;BME280;50936;51.660;5.616;2023-02-07T08:55:35;103684.84;;;-2.40;100.00
64544;BME280;50936;51.660;5.616;2023-02-07T08:58:02;103684.06;;;-2.36;100.00
64544;BME280;50936;51.660;5.616;2023-02-07T09:00:29;103676.97;;;-2.37;100.00
64544;BME280;50936;51.660;5.616;2023-02-07T09:02:56;103673.38;;;-2.39;100.00
64544;BME280;50936;51.660;5.616;2023-02-07T09:05:23;103675.19;;;-2.38;100.00
64544;BME280;50936;51.660;5.616;2023-02-07T09:07:50;103677.03;;;-2.35;100.00
64544;BME280;50936;51.660;5.616;2023-02-07T09:10:16;103685.03;;;-2.34;100.00
64544;BME280;50936;51.660;5.616;2023-02-07T09:12:43;103675.47;;;-2.28;100.00
64544;BME280;50936;51.660;5.616;2023-02-07T09:15:10;103685.28;;;-2.24;100.00
64544;BME280;50936;51.660;5.616;2023-02-07T09:17:37;103688.03;;;-2.21;100.00
64544;BME280;50936;51.660;5.616;2023-02-07T09:20:04;103685.50;;;-2.17;100.00
64544;BME280;50936;51.660;5.616;2023-02-07T09:22:32;103682.13;;;-2.11;100.00
64544;BME280;50936;51.660;5.616;2023-02-07T09:25:19;103677.97;;;-2.03;100.00
64544;BME280;50936;51.660;5.616;2023-02-07T09:27:45;103681.72;;;-1.95;100.00
64544;BME280;50936;51.660;5.616;2023-02-07T09:30:13;103684.63;;;-1.85;100.00
64544;BME280;50936;51.660;5.616;2023-02-07T09:32:40;103678.72;;;-1.75;100.00
64544;BME280;50936;51.660;5.616;2023-02-07T09:35:07;103686.00;;;-1.68;100.00
64544;BME280;50936;51.660;5.616;2023-02-07T09:37:34;103684.38;;;-1.63;100.00
64544;BME280;50936;51.660;5.616;2023-02-07T09:40:16;103671.22;;;-1.58;100.00
64544;BME280;50936;51.660;5.616;2023-02-07T09:43:01;103663.56;;;-1.47;100.00
64544;BME280;50936;51.660;5.616;2023-02-07T09:45:42;103676.19;;;-1.37;100.00
64544;BME280;50936;51.660;5.616;2023-02-07T09:48:27;103674.63;;;-1.29;100.00
64544;BME280;50936;51.660;5.616;2023-02-07T09:51:04;103666.91;;;-1.20;100.00
64544;BME280;50936;51.660;5.616;2023-02-07T09:53:42;103668.00;;;-1.11;100.00
64544;BME280;50936;51.660;5.616;2023-02-07T09:56:16;103660.97;;;-1.09;100.00
64544;BME280;50936;51.660;5.616;2023-02-07T09:59:05;103661.19;;;-1.00;100.00
64544;BME280;50936;51.660;5.616;2023-02-07T10:01:48;103660.47;;;-0.93;100.00
64544;BME280;50936;51.660;5.616;2023-02-07T10:04:32;103657.97;;;-0.87;100.00
64544;BME280;50936;51.660;5.616;2023-02-07T10:07:03;103649.34;;;-0.76;100.00
64544;BME280;50936;51.660;5.616;2023-02-07T10:09:43;103651.41;;;-0.63;100.00
64544;BME280;50936;51.660;5.616;2023-02-07T10:18:03;103649.06;;;0.41;100.00
64544;BME280;50936;51.660;5.616;2023-02-07T10:23:52;103665.53;;;1.28;100.00
64544;BME280;50936;51.660;5.616;2023-02-07T10:32:14;103663.97;;;2.16;100.00
64544;BME280;50936;51.660;5.616;2023-02-07T10:34:46;103658.06;;;2.44;100.00
64544;BME280;50936;51.660;5.616;2023-02-07T10:37:23;103661.66;;;2.48;100.00
64544;BME280;50936;51.660;5.616;2023-02-07T10:40:21;103671.41;;;2.46;100.00
64544;BME280;50936;51.660;5.616;2023-02-07T10:42:57;103657.38;;;2.68;100.00
64544;BME280;50936;51.660;5.616;2023-02-07T10:45:28;103662.06;;;2.97;100.00
64544;BME280;50936;51.660;5.616;2023-02-07T10:47:56;103656.94;;;3.28;100.00
64544;BME280;50936;51.660;5.616;2023-02-07T10:50:24;103662.34;;;3.37;100.00
64544;BME280;50936;51.660;5.616;2023-02-07T10:52:57;103664.00;;;3.20;100.00
64544;BME280;50936;51.660;5.616;2023-02-07T10:55:45;103663.19;;;3.32;100.00
64544;BME280;50936;51.660;5.616;2023-02-07T10:58:15;103659.75;;;3.54;100.00
64544;BME280;50936;51.660;5.616;2023-02-07T11:00:51;103663.28;;;3.50;100.00
64544;BME280;50936;51.660;5.616;2023-02-07T11:03:21;103665.16;;;3.70;100.00
64544;BME280;50936;51.660;5.616;2023-02-07T11:06:04;103666.13;;;3.89;100.00
64544;BME280;50936;51.660;5.616;2023-02-07T11:08:34;103659.91;;;3.99;100.00
64544;BME280;50936;51.660;5.616;2023-02-07T11:13:52;103659.09;;;4.12;100.00
64544;BME280;50936;51.660;5.616;2023-02-07T11:16:22;103650.16;;;4.13;99.16
64544;BME280;50936;51.660;5.616;2023-02-07T11:19:03;103647.47;;;4.12;100.00
64544;BME280;50936;51.660;5.616;2023-02-07T11:24:06;103639.50;;;4.36;97.95
64544;BME280;50936;51.660;5.616;2023-02-07T11:26:52;103644.84;;;4.41;96.53
64544;BME280;50936;51.660;5.616;2023-02-07T11:30:04;103643.06;;;4.61;95.97
64544;BME280;50936;51.660;5.616;2023-02-07T11:32:35;103643.97;;;4.87;93.09
64544;BME280;50936;51.660;5.616;2023-02-07T11:35:08;103635.94;;;4.97;92.89
64544;BME280;50936;51.660;5.616;2023-02-07T11:37:58;103632.34;;;5.05;92.77
64544;BME280;50936;51.660;5.616;2023-02-07T11:40:37;103639.47;;;5.24;93.74
64544;BME280;50936;51.660;5.616;2023-02-07T11:43:12;103640.28;;;5.46;91.05
64544;BME280;50936;51.660;5.616;2023-02-07T11:45:44;103640.22;;;5.62;89.04
64544;BME280;50936;51.660;5.616;2023-02-07T11:48:24;103639.25;;;5.79;89.70
64544;BME280;50936;51.660;5.616;2023-02-07T11:50:58;103625.72;;;6.09;93.11
64544;BME280;50936;51.660;5.616;2023-02-07T11:53:38;103637.06;;;6.52;87.93
64544;BME280;50936;51.660;5.616;2023-02-07T11:56:23;103625.13;;;6.84;85.90
64544;BME280;50936;51.660;5.616;2023-02-07T11:58:56;103627.63;;;7.03;83.55
64544;BME280;50936;51.660;5.616;2023-02-07T12:01:30;103624.00;;;7.07;83.93
64544;BME280;50936;51.660;5.616;2023-02-07T12:04:01;103623.88;;;7.19;81.25
64544;BME280;50936;51.660;5.616;2023-02-07T12:12:17;103607.97;;;7.75;81.51
64544;BME280;50936;51.660;5.616;2023-02-07T12:15:00;103617.28;;;8.13;75.86
64544;BME280;50936;51.660;5.616;2023-02-07T12:23:46;103618.41;;;8.59;74.87
64544;BME280;50936;51.660;5.616;2023-02-07T12:26:26;103611.09;;;8.67;77.51
64544;BME280;50936;51.660;5.616;2023-02-07T12:35:24;103610.00;;;8.21;74.16
64544;BME280;50936;51.660;5.616;2023-02-07T12:38:16;103605.75;;;8.06;73.02
64544;BME280;50936;51.660;5.616;2023-02-07T12:40:52;103604.38;;;7.76;77.07
64544;BME280;50936;51.660;5.616;2023-02-07T12:43:27;103601.75;;;7.73;77.62
64544;BME280;50936;51.660;5.616;2023-02-07T13:09:07;103596.41;;;7.68;73.90
64544;BME280;50936;51.660;5.616;2023-02-07T13:11:48;103599.78;;;7.86;74.31
64544;BME280;50936;51.660;5.616;2023-02-07T13:17:39;103595.44;;;8.33;64.54
64544;BME280;50936;51.660;5.616;2023-02-07T13:23:18;103593.97;;;8.70;67.89
64544;BME280;50936;51.660;5.616;2023-02-07T13:25:51;103596.22;;;8.96;66.06
64544;BME280;50936;51.660;5.616;2023-02-07T13:28:27;103590.53;;;9.11;66.19
64544;BME280;50936;51.660;5.616;2023-02-07T13:31:07;103595.69;;;9.23;61.89
64544;BME280;50936;51.660;5.616;2023-02-07T13:33:40;103585.00;;;9.17;62.96
64544;BME280;50936;51.660;5.616;2023-02-07T13:41:44;103572.38;;;9.19;63.67
64544;BME280;50936;51.660;5.616;2023-02-07T13:53:57;103582.66;;;9.44;62.29
64544;BME280;50936;51.660;5.616;2023-02-07T13:56:36;103581.66;;;9.48;59.07
64544;BME280;50936;51.660;5.616;2023-02-07T13:59:36;103564.97;;;9.31;60.27
64544;BME280;50936;51.660;5.616;2023-02-07T14:02:11;103563.16;;;9.31;63.29
64544;BME280;50936;51.660;5.616;2023-02-07T14:04:55;103566.13;;;9.59;60.98
64544;BME280;50936;51.660;5.616;2023-02-07T14:07:26;103556.78;;;9.76;59.25
64544;BME280;50936;51.660;5.616;2023-02-07T14:09:55;103567.94;;;9.99;58.12
64544;BME280;50936;51.660;5.616;2023-02-07T14:25:39;103563.84;;;10.56;57.27
64544;BME280;50936;51.660;5.616;2023-02-07T14:28:16;103556.41;;;10.66;56.48
64544;BME280;50936;51.660;5.616;2023-02-07T14:30:58;103561.47;;;10.78;57.14
64544;BME280;50936;51.660;5.616;2023-02-07T14:33:37;103562.75;;;10.98;54.57
64544;BME280;50936;51.660;5.616;2023-02-07T14:41:36;103559.97;;;10.68;55.67
64544;BME280;50936;51.660;5.616;2023-02-07T14:44:18;103572.69;;;10.63;56.16
64544;BME280;50936;51.660;5.616;2023-02-07T14:46:49;103573.19;;;10.45;55.77
64544;BME280;50936;51.660;5.616;2023-02-07T14:49:34;103578.19;;;10.23;53.79
64544;BME280;50936;51.660;5.616;2023-02-07T14:52:11;103572.63;;;9.91;53.98
64544;BME280;50936;51.660;5.616;2023-02-07T14:54:47;103575.16;;;9.58;53.47
64544;BME280;50936;51.660;5.616;2023-02-07T14:57:42;103568.75;;;9.20;54.76
64544;BME280;50936;51.660;5.616;2023-02-07T15:03:19;103573.00;;;8.89;54.27
64544;BME280;50936;51.660;5.616;2023-02-07T15:05:56;103574.50;;;8.54;56.00
64544;BME280;50936;51.660;5.616;2023-02-07T15:08:32;103566.78;;;8.29;59.20
64544;BME280;50936;51.660;5.616;2023-02-07T15:11:10;103573.06;;;8.29;59.78
64544;BME280;50936;51.660;5.616;2023-02-07T15:13:42;103565.81;;;8.33;59.43
64544;BME280;50936;51.660;5.616;2023-02-07T15:16:15;103561.38;;;8.31;59.92
64544;BME280;50936;51.660;5.616;2023-02-07T15:21:44;103558.25;;;8.02;60.26
64544;BME280;50936;51.660;5.616;2023-02-07T15:24:38;103553.34;;;7.68;62.25
64544;BME280;50936;51.660;5.616;2023-02-07T15:27:26;103553.50;;;7.59;63.50
64544;BME280;50936;51.660;5.616;2023-02-07T15:30:00;103557.13;;;7.55;63.92
64544;BME280;50936;51.660;5.616;2023-02-07T15:32:32;103550.09;;;7.45;64.85
64544;BME280;50936;51.660;5.616;2023-02-07T15:35:16;103550.09;;;7.45;65.00
64544;BME280;50936;51.660;5.616;2023-02-07T15:37:47;103555.53;;;7.40;65.29